KHWD/HWD METAR and TAF weather

Enter ICAO airport designator
Station Type Date Time Source
KHWD METAR 2021/05/14 22:37 UTC NOAA

KHWD 142237Z 28013KT 10SM BKN011 14/09 A2995 RMK AO2 T01390089


Station Type Date Time Source
KHWD Decoded METAR 2021/05/14 22:37 UTC NOAA

HAYWARD AIR TERMINAL, CA, United States (KHWD) 37-40N 122-07W 21M
May 14, 2021 - 06:37 PM EDT / 2021.05.14 2237 UTC
Wind: from the W (280 degrees) at 15 MPH (13 KT):0
Visibility: 10 mile(s):0
Sky conditions: mostly cloudy
Temperature: 57.0 F (13.9 C)
Dew Point: 48.0 F (8.9 C)
Relative Humidity: 71%
Pressure (altimeter): 29.95 in. Hg (1014 hPa)
ob: KHWD 142237Z 28013KT 10SM BKN011 14/09 A2995 RMK AO2 T01390089
cycle: 22

Station Type Date Time Source
KHWD TAF UTC NOAA

Error!

Example: see airport list